TimeCDT,TemperatureF,Dew PointF,Humidity,Sea Level PressureIn,VisibilityMPH,Wind Direction,Wind SpeedMPH,Gust SpeedMPH,PrecipitationIn,Events,Conditions,WindDirDegrees,DateUTC
12:12 AM,28.4,26.6,93,29.70,1.2,North,8.1,19.6,0.01,Snow,Light Snow,10,2013-03-11 05:12:00
12:19 AM,28.4,26.6,93,29.69,1.0,North,8.1,19.6,0.02,Snow,Light Snow,10,2013-03-11 05:19:00
12:24 AM,28.4,26.6,93,29.69,0.8,North,8.1,-,0.02,Snow,Light Snow,10,2013-03-11 05:24:00
12:34 AM,28.4,26.6,93,29.69,0.5,NNE,9.2,-,0.04,Fog-Snow,Snow,20,2013-03-11 05:34:00
12:54 AM,28.9,27.0,92,29.73,0.5,North,8.1,-,0.06,Fog-Snow,Snow,10,2013-03-11 05:54:00
1:35 AM,28.4,26.6,93,29.66,1.0,Variable,6.9,-,0.05,Snow,Light Snow,0,2013-03-11 06:35:00
1:42 AM,28.4,26.6,93,29.66,1.0,North,8.1,-,0.05,Snow,Light Snow,10,2013-03-11 06:42:00
1:54 AM,28.9,27.0,92,29.70,1.2,North,5.8,-,0.05,Snow,Light Snow,360,2013-03-11 06:54:00
2:04 AM,28.4,26.6,93,29.65,1.5,North,6.9,-,0.00,Snow,Light Snow,360,2013-03-11 07:04:00
2:26 AM,28.4,26.6,93,29.64,2.0,North,6.9,-,0.01,Snow,Light Snow,360,2013-03-11 07:26:00
2:32 AM,28.4,26.6,93,29.64,1.8,North,6.9,-,0.01,Snow,Light Snow,10,2013-03-11 07:32:00
2:39 AM,28.4,26.6,93,29.63,2.0,North,8.1,-,0.01,Snow,Light Snow,350,2013-03-11 07:39:00
2:47 AM,28.4,26.6,93,29.63,3.0,NNW,8.1,-,0.01,Snow,Light Snow,340,2013-03-11 07:47:00
2:54 AM,30.0,26.1,85,29.68,4.0,Variable,5.8,-,0.01,Snow,Light Snow,0,2013-03-11 07:54:00
3:54 AM,28.9,27.0,92,29.66,4.0,North,5.8,-,0.00,Snow,Light Snow,350,2013-03-11 08:54:00
4:05 AM,28.4,26.6,93,29.61,2.5,North,6.9,-,0.00,Snow,Light Snow,350,2013-03-11 09:05:00
4:18 AM,28.4,26.6,93,29.60,1.5,North,5.8,-,0.00,Snow,Light Snow,350,2013-03-11 09:18:00
4:54 AM,28.9,27.0,92,29.65,1.8,NNW,6.9,-,0.01,Snow,Light Snow,340,2013-03-11 09:54:00
5:23 AM,28.4,26.6,93,29.59,2.0,North,6.9,-,0.00,Snow,Light Snow,350,2013-03-11 10:23:00
5:51 AM,28.4,26.6,93,29.59,3.0,NNW,6.9,-,0.00,Snow,Light Snow,340,2013-03-11 10:51:00
5:54 AM,28.9,27.0,92,29.64,3.0,NNW,6.9,-,0.00,Snow,Light Snow,340,2013-03-11 10:54:00
6:04 AM,28.4,26.6,93,29.59,2.5,North,9.2,-,0.00,Snow,Light Snow,350,2013-03-11 11:04:00
6:13 AM,28.4,26.6,93,29.59,3.0,North,6.9,-,0.00,Snow,Light Snow,350,2013-03-11 11:13:00
6:54 AM,28.9,27.0,92,29.65,6.0,NNW,8.1,-,0.00,,Overcast,340,2013-03-11 11:54:00
7:54 AM,28.9,26.1,89,29.67,2.5,North,5.8,-,0.00,Snow,Light Snow,350,2013-03-11 12:54:00
8:07 AM,28.4,26.6,93,29.62,1.8,NNW,5.8,-,0.00,Snow,Light Snow,340,2013-03-11 13:07:00
8:21 AM,28.4,26.6,93,29.62,2.5,North,5.8,-,0.00,Snow,Light Snow,350,2013-03-11 13:21:00
8:28 AM,28.4,26.6,93,29.62,3.0,North,6.9,-,0.00,Snow,Light Snow,350,2013-03-11 13:28:00
8:54 AM,30.0,26.1,85,29.67,5.0,North,6.9,-,0.00,,Overcast,10,2013-03-11 13:54:00
9:38 AM,30.2,26.6,86,29.61,2.5,North,8.1,-,N/A,,Overcast,10,2013-03-11 14:38:00
9:54 AM,30.0,26.1,85,29.65,3.0,North,9.2,-,N/A,,Overcast,350,2013-03-11 14:54:00
10:21 AM,30.2,26.6,86,29.59,4.0,North,11.5,18.4,N/A,,Overcast,350,2013-03-11 15:21:00
10:34 AM,30.2,26.6,86,29.59,6.0,North,10.4,-,N/A,,Overcast,350,2013-03-11 15:34:00
10:54 AM,30.9,26.1,82,29.63,10.0,North,9.2,19.6,N/A,,Overcast,10,2013-03-11 15:54:00
11:19 AM,32.0,24.8,75,29.56,10.0,North,8.1,18.4,N/A,,Overcast,10,2013-03-11 16:19:00
11:35 AM,32.0,24.8,75,29.56,10.0,North,9.2,19.6,N/A,,Overcast,360,2013-03-11 16:35:00
11:54 AM,32.0,25.0,75,29.60,10.0,North,9.2,18.4,N/A,,Overcast,10,2013-03-11 16:54:00
12:54 PM,32.0,24.1,73,29.61,10.0,North,10.4,17.3,N/A,,Overcast,10,2013-03-11 17:54:00
1:54 PM,30.9,23.0,72,29.61,10.0,NNW,13.8,-,N/A,,Overcast,340,2013-03-11 18:54:00
2:54 PM,30.0,23.0,75,29.60,10.0,North,15.0,20.7,N/A,,Overcast,350,2013-03-11 19:54:00
3:54 PM,30.0,21.9,72,29.61,10.0,NNW,9.2,18.4,N/A,,Overcast,340,2013-03-11 20:54:00
4:31 PM,30.2,21.2,69,29.56,10.0,North,8.1,-,N/A,,Overcast,360,2013-03-11 21:31:00
4:41 PM,30.2,21.2,69,29.56,10.0,North,9.2,17.3,N/A,,Overcast,350,2013-03-11 21:41:00
4:54 PM,30.0,23.0,75,29.61,10.0,NNW,6.9,-,N/A,,Overcast,330,2013-03-11 21:54:00
5:54 PM,28.0,21.9,78,29.63,7.0,NNW,12.7,19.6,0.00,,Overcast,340,2013-03-11 22:54:00
6:54 PM,27.0,21.0,78,29.65,7.0,NW,11.5,-,0.00,,Overcast,320,2013-03-11 23:54:00
7:04 PM,26.6,21.2,80,29.60,9.0,NW,10.4,-,0.00,,Overcast,320,2013-03-12 00:04:00
7:54 PM,25.0,19.9,81,29.69,8.0,WNW,9.2,-,0.00,,Overcast,300,2013-03-12 00:54:00
8:25 PM,24.8,19.4,80,29.65,4.0,NW,11.5,-,0.00,Snow,Light Snow,320,2013-03-12 01:25:00
8:54 PM,25.0,19.0,78,29.72,10.0,NNW,5.8,-,0.00,,Overcast,330,2013-03-12 01:54:00
9:27 PM,24.8,17.6,74,29.68,10.0,NNW,10.4,-,N/A,,Overcast,330,2013-03-12 02:27:00
9:54 PM,24.1,17.1,75,29.74,10.0,NW,9.2,-,N/A,,Overcast,320,2013-03-12 02:54:00
11:09 PM,24.8,17.6,74,29.69,9.0,NW,8.1,-,N/A,,Overcast,320,2013-03-12 04:09:00
11:54 PM,23.0,17.1,78,29.75,10.0,WNW,9.2,-,0.00,,Overcast,300,2013-03-12 04:54:00